• Join FlightAware (Why Join?)
  • Login
  • US Flag 
04:14AM EDT


 

Airport Tracker/Info


-or-


 

Live Flight TrackerFlight Track Log ✈ RPA3228 ✈ 22-May-2013 ✈ KDSM - KDCA

Flight Track Log - Related Links

Times and Time Zones

All times are in EDT time to prevent confusion due to time zone crossing. See the RPA3228 flight status page for this flight to view local times or setup timezone preferences in your user account.

Time Position Orientation Groundspeed Altitude Reporting Facility
EDT Latitude Longitude Course Direction KTS MPH feet Rate Location/Type
07:10AM 41.5289 -93.6706 86° East 164 189 1,700  Level Minneapolis Center
07:10AM 41.5117 -93.6972 229° Southwest 143 165 3,000 1,560 Climbing Minneapolis Center
07:11AM 41.4597 -93.7047 186° South 233 268 4,500 1,740 Climbing Minneapolis Center
07:12AM 41.4390 -93.3599 82° East  Level FlightAware Approximate
07:12AM 41.4439 -93.6842 136° Southeast 257 296 5,300  Level Minneapolis Center
07:13AM 41.4500 -93.2232 90° East  Level FlightAware Approximate
07:13AM 41.4467 -93.5831 88° East 278 320 7,900  Level Minneapolis Center
07:14AM 41.4501 -93.0855 90° East  Level FlightAware Approximate
07:14AM 41.4519 -93.4728 86° East 298 343 10,500  Level Minneapolis Center
07:15AM 41.4534 -92.9480 86° East  Level FlightAware Approximate
07:15AM 41.4564 -93.3500 87° East 330 380 12,400  Level Minneapolis Center
07:16AM 41.4622 -93.2422 86° East 343 395 14,400 2,160 Climbing Minneapolis Center
07:17AM 41.4686 -93.0800 87° East 357 411 16,800 2,220 Climbing Minneapolis Center
07:18AM 41.4728 -92.9494 88° East 362 417 18,900 1,860 Climbing Minneapolis Center
07:19AM 41.4783 -92.8100 87° East 372 428 20,600 1,560 Climbing Minneapolis Center
07:20AM 41.4844 -92.6683 87° East 381 438 22,100 1,380 Climbing Minneapolis Center
07:20AM 41.4861 -92.6106 88° East 383 441 22,800 1,500 Climbing Chicago Center
07:21AM 41.4911 -92.4672 87° East 387 445 24,400 1,440 Climbing Chicago Center
07:22AM 41.4969 -92.3153 87° East 394 453 25,800 1,380 Climbing Chicago Center
07:23AM 41.5025 -92.1361 88° East 406 467 27,300 1,260 Climbing Chicago Center
07:24AM 41.5078 -91.9847 87° East 414 476 28,500 1,200 Climbing Chicago Center
07:25AM 41.5122 -91.8306 88° East 418 481 29,800 1,080 Climbing Chicago Center
07:26AM 41.5172 -91.6736 88° East 428 493 30,800 1,200 Climbing Chicago Center
07:27AM 41.5214 -91.5150 88° East 432 497 32,300 1,260 Climbing Chicago Center
07:28AM 41.5250 -91.3586 88° East 430 495 33,500 1,020 Climbing Chicago Center
07:29AM 41.5281 -91.2028 88° East 425 489 34,400 720 Climbing Chicago Center
07:30AM 41.5308 -91.0169 89° East 423 487 35,000 240 Climbing Chicago Center
07:31AM 41.5333 -90.8606 89° East 425 489 35,000  Level Chicago Center
07:32AM 41.5361 -90.7036 89° East 429 494 35,000  Level Chicago Center
07:34AM 41.5381 -90.5458 89° East 435 501 35,000  Level Chicago Center
07:35AM 41.5394 -90.3856 89° East 433 498 35,000  Level Chicago Center
07:36AM 41.5419 -90.2231 89° East 436 502 35,000  Level Chicago Center
07:37AM 41.5444 -90.0567 89° East 442 509 35,000  Level Chicago Center
07:38AM 41.5461 -89.8581 89° East 445 512 35,000  Level Chicago Center
07:39AM 41.5467 -89.6933 90° East 443 510 35,000  Level Chicago Center
07:40AM 41.5475 -89.5325 90° East 443 510 35,000  Level Chicago Center
07:41AM 41.5489 -89.3703 89° East 439 505 35,000  Level Chicago Center
07:42AM 41.5489 -89.2111 90° East 432 497 35,000  Level Chicago Center
07:43AM 41.5478 -89.0522 90° East 431 496 35,000  Level Chicago Center
07:44AM 41.5478 -88.8586 90° East 435 501 35,000  Level Chicago Center
07:45AM 41.5478 -88.7003 90° East 430 495 35,000  Level Chicago Center
07:46AM 41.5481 -88.5375 90° East 437 503 35,000  Level Chicago Center
07:47AM 41.5472 -88.3747 90° East 438 504 35,000  Level Chicago Center
07:48AM 41.5258 -88.2192 100° East 425 489 35,000  Level Chicago Center
07:49AM 41.4906 -88.0525 106° East 431 496 35,000  Level Chicago Center
07:50AM 41.4575 -87.9047 107° East 426 490 35,000  Level Chicago Center
07:51AM 41.4242 -87.7528 106° East 426 490 35,000  Level Chicago Center
07:52AM 41.3911 -87.6006 106° East 429 494 35,000  Level Chicago Center
07:53AM 41.3578 -87.4506 106° East 426 490 35,000  Level Chicago Center
07:54AM 41.3175 -87.2714 107° East 426 490 35,000  Level Chicago Center
07:55AM 41.2836 -87.1217 107° East 425 489 35,000  Level Chicago Center
07:56AM 41.2478 -86.9706 107° East 430 495 35,000  Level Chicago Center
07:57AM 41.2147 -86.8197 106° East 429 494 35,000  Level Chicago Center
07:58AM 41.1806 -86.6736 107° East 426 490 35,000  Level Chicago Center
07:59AM 41.1450 -86.5206 107° East 434 499 35,000  Level Chicago Center
08:00AM 41.1100 -86.3703 107° East 432 497 35,000  Level Chicago Center
08:01AM 41.0719 -86.2069 107° East 433 498 35,000  Level Chicago Center
08:02AM 41.0361 -86.0553 107° East 431 496 35,000  Level Chicago Center
08:03AM 40.9928 -85.8750 108° East 431 496 35,000  Level Chicago Center
08:04AM 40.9572 -85.7236 107° East 431 496 35,000  Level Chicago Center
08:05AM 40.9211 -85.5731 108° East 430 495 35,000  Level Chicago Center
08:06AM 40.8847 -85.4228 108° East 431 496 35,000  Level Chicago Center
08:07AM 40.8483 -85.2722 108° East 431 496 35,000  Level Chicago Center
08:08AM 40.8103 -85.1217 108° East 434 499 35,000  Level Chicago Center
08:09AM 40.7731 -84.9717 108° East 432 497 35,000  Level Chicago Center
08:10AM 40.7369 -84.8222 108° East 429 494 35,000  Level Chicago Center
08:11AM 40.6944 -84.6428 107° East 427 491 35,000  Level Chicago Center
08:12AM 40.6594 -84.5169 110° East 431 496 35,000  Level Indianapolis Center
08:13AM 40.6214 -84.3661 108° East 430 495 35,000  Level Indianapolis Center
08:14AM 40.5819 -84.2153 109° East 431 496 35,000  Level Indianapolis Center
08:15AM 40.5433 -84.0633 108° East 432 497 35,000  Level Indianapolis Center
08:16AM 40.5047 -83.9131 109° East 430 495 35,000  Level Indianapolis Center
08:17AM 40.4650 -83.7606 109° East 435 501 35,000  Level Indianapolis Center
08:19AM 40.4256 -83.6111 109° East 428 493 35,000  Level Indianapolis Center
08:20AM 40.3853 -83.4600 109° East 432 497 35,000  Level Indianapolis Center
08:21AM 40.3458 -83.3064 109° East 438 504 35,000  Level Indianapolis Center
08:22AM 40.3047 -83.1558 110° East 435 501 35,000  Level Indianapolis Center
08:23AM 40.2583 -82.9808 109° East 431 496 35,000  Level Indianapolis Center
08:24AM 40.2172 -82.8308 110° East 432 497 35,000  Level Indianapolis Center
08:25AM 40.1767 -82.6806 109° East 434 499 35,000  Level Indianapolis Center
08:26AM 40.1342 -82.5289 110° East 439 505 35,000  Level Indianapolis Center
08:27AM 40.0892 -82.3803 112° Southeast 435 501 35,000  Level Indianapolis Center
08:28AM 40.0456 -82.2314 111° Southeast 436 502 35,000  Level Indianapolis Center
08:29AM 40.0011 -82.0836 111° Southeast 433 498 35,000  Level Indianapolis Center
08:30AM 39.9567 -81.9356 111° Southeast 435 501 35,000  Level Indianapolis Center
08:31AM 39.9119 -81.7881 112° Southeast 433 498 35,000  Level Indianapolis Center
08:32AM 39.8675 -81.6431 112° Southeast 429 494 35,000  Level Indianapolis Center
08:33AM 39.8231 -81.4969 112° Southeast 431 496 35,000  Level Indianapolis Center
08:34AM 39.7728 -81.3319 112° Southeast 425 489 35,000  Level Indianapolis Center
08:35AM 39.7292 -81.1925 112° Southeast 418 481 35,000  Level Indianapolis Center
08:36AM 39.6844 -81.0489 112° Southeast 427 491 35,000  Level Indianapolis Center
08:37AM 39.6406 -80.9069 112° Southeast 423 487 35,000  Level Indianapolis Center
08:38AM 39.5944 -80.7653 113° Southeast 425 489 35,000  Level Indianapolis Center
08:39AM 39.5503 -80.6244 112° Southeast 422 486 35,000  Level Indianapolis Center
08:40AM 39.5053 -80.4811 112° Southeast 427 491 35,000  Level Indianapolis Center
08:41AM 39.4597 -80.3389 112° Southeast 427 491 35,000  Level Indianapolis Center
08:42AM 39.4058 -80.1706 112° Southeast 423 487 35,000 -1,020 Level Indianapolis Center
08:45AM 39.2869 -79.7133 108° East 446 513 31,000 -1,020 Descending Washington Center
08:46AM 39.2756 -79.5517 95° East 451 519 31,000 -300 Level Washington Center
08:47AM 39.2622 -79.3847 96° East 456 525 30,400 -1,380 Descending Washington Center
08:48AM 39.2478 -79.2419 97° East 456 525 28,300 -1,800 Descending Washington Center
08:49AM 39.2336 -79.0858 97° East 450 518 26,900 -1,260 Descending Washington Center
08:50AM 39.2214 -78.9353 96° East 432 497 25,800 -1,680 Descending Washington Center
08:51AM 39.2067 -78.7872 97° East 424 488 23,500 -2,280 Descending Washington Center
08:52AM 39.1917 -78.6392 97° East 419 482 21,300 -2,280 Descending Washington Center
08:53AM 39.1786 -78.4967 97° East 413 475 19,100 -2,100 Descending Washington Center
08:54AM 39.1631 -78.3622 98° East 393 452 17,100 -1,560 Descending Washington Center
08:55AM 39.1344 -78.2408 107° East 369 425 16,000 -1,020 Descending Washington Center
08:56AM 39.1036 -78.1272 109° East 347 399 15,200 -1,020 Descending Washington Center
08:57AM 39.0767 -78.0167 107° East 331 381 14,100 -1,080 Descending Washington Center
08:58AM 39.0475 -77.9061 109° East 326 375 13,100 -1,260 Descending Washington Center
08:59AM 39.0164 -77.7903 109° East 321 369 11,600 -1,320 Descending Washington Center
09:00AM 38.9931 -77.6936 107° East 315 362 10,500 -1,260 Descending Washington Center
09:01AM 38.9667 -77.6000 110° East 306 352 9,400 -1,620 Descending Potomac TRACON
09:02AM 38.9500 -77.5167 104° East 295 339 7,900 -1,020 Descending Potomac TRACON
09:03AM 38.9667 -77.4000 80° East 282 325 7,400 -480 Descending Potomac TRACON
09:04AM 39.0000 -77.3333 57° Northeast 282 325 7,100 -240 Descending Potomac TRACON
09:05AM 39.0333 -77.2667 57° Northeast 254 292 7,000 -60 Descending Potomac TRACON
09:06AM 39.0667 -77.1833 63° Northeast 251 289 7,000  Level Potomac TRACON
09:07AM 39.0667 -77.1000 90° East 250 288 7,000  Level Potomac TRACON
09:08AM 39.0667 -77.0167 90° East 248 285 7,000  Level Potomac TRACON
09:09AM 39.0333 -76.9500 123° Southeast 200 230 7,000 -420 Level Potomac TRACON
09:10AM 39.0000 -76.9833 218° Southwest 178 205 6,200 -540 Descending Potomac TRACON
09:11AM 39.0000 -77.0333 270° West 190 219 6,000 -240 Descending Potomac TRACON
09:12AM 39.0500 -77.0833 322° Northwest 184 212 5,800 -540 Descending Potomac TRACON
09:12AM 39.0833 -77.1167 322° Northwest 180 207 5,000 -480 Descending Potomac TRACON
09:13AM 39.1167 -77.1500 322° Northwest 186 214 5,000 -480 Level Potomac TRACON
09:15AM 39.0667 -77.2000 218° Southwest 176 203 4,000 -960 Descending Potomac TRACON
09:16AM 39.0333 -77.2167 201° Southwest 185 213 3,000 -600 Descending Potomac TRACON
09:17AM 38.9833 -77.1833 153° Southeast 184 212 2,900 -120 Descending Potomac TRACON